Head of the Harbor, New York
Current Conditions -  °F | °C
As of 4:56 PM on Sunday 21 Dec 2014 (Local Time) from KISP Reporting Station
Haze Haze  
Wind Chill: 30°   Ceiling: 600
Heat Index: 36°   Visibility: 5mi
Dew Point: 32°   Wind: 7mph
Humidity: 86%   Direction: 350°N
Pressure: 30.28"   Gusts: NA
Location:  40.9035°N, 73.127°W
Report Text: KISP 212156Z 35006KT 5SM BR OVC006 02/00 A3028 RMK AO2 SLP252 T00220000
Loading
Personal Weather Stations






























Interactive Weather Map New forecast layout! Learn more

10-Day Weather Forecast

Advertisements
Track Severe Weather on mobile